createdAt,value
2018-09-28T00:01:15.227Z,101540.12
2018-09-28T00:03:43.627Z,101547.11
2018-09-28T00:06:11.997Z,101546.23
2018-09-28T00:08:40.395Z,101547.53
2018-09-28T00:11:08.767Z,101552.76
2018-09-28T00:13:37.220Z,101542.73
2018-09-28T00:16:05.562Z,101543.14
2018-09-28T00:18:33.963Z,101551.89
2018-09-28T00:21:02.325Z,101544.47
2018-09-28T00:23:30.720Z,101552.33
2018-09-28T00:25:59.159Z,101550.56
2018-09-28T00:28:27.547Z,101543.60
2018-09-28T00:30:55.923Z,101543.14
2018-09-28T00:33:24.314Z,101544.03
2018-09-28T00:35:52.696Z,101547.08
2018-09-28T00:38:21.109Z,101540.53
2018-09-28T00:40:49.483Z,101545.77
2018-09-28T00:43:17.884Z,101540.97
2018-09-28T00:45:46.541Z,101546.20
2018-09-28T00:48:15.349Z,101550.17
2018-09-28T00:50:43.722Z,101544.94
2018-09-28T00:53:12.128Z,101546.24
2018-09-28T00:55:40.506Z,101542.78
2018-09-28T00:58:08.915Z,101539.28
2018-09-28T01:00:37.303Z,101537.95
2018-09-28T01:03:05.701Z,101538.41
2018-09-28T01:05:34.083Z,101544.97
2018-09-28T01:08:02.495Z,101540.64
2018-09-28T01:10:30.870Z,101538.91
2018-09-28T01:12:59.267Z,101538.89
2018-09-28T01:15:27.637Z,101537.17
2018-09-28T01:17:56.051Z,101549.81
2018-09-28T01:20:24.453Z,101564.69
2018-09-28T01:22:52.835Z,101561.63
2018-09-28T01:25:21.237Z,101559.44
2018-09-28T01:27:49.630Z,101559.88
2018-09-28T01:30:18.067Z,101555.52
2018-09-28T01:32:46.473Z,101566.84
2018-09-28T01:35:14.878Z,101559.86
2018-09-28T01:37:43.263Z,101562.00
2018-09-28T01:40:11.662Z,101554.11
2018-09-28T01:42:40.038Z,101553.23
2018-09-28T01:45:08.444Z,101561.09
2018-09-28T01:47:36.818Z,101557.15
2018-09-28T01:50:05.230Z,101568.05
2018-09-28T01:52:33.631Z,101561.07
2018-09-28T01:55:02.036Z,101566.30
2018-09-28T01:57:30.409Z,101569.76
2018-09-28T01:59:58.843Z,101560.14
2018-09-28T02:02:27.525Z,101565.37
2018-09-28T02:04:55.963Z,101561.01
2018-09-28T02:07:24.532Z,101563.18
2018-09-28T02:09:52.927Z,101569.30
2018-09-28T02:12:21.318Z,101569.70
2018-09-28T02:14:49.709Z,101569.28
2018-09-28T02:17:18.077Z,101574.09
2018-09-28T02:19:46.483Z,101572.32
2018-09-28T02:22:14.859Z,101574.95
2018-09-28T02:24:43.257Z,101591.11
2018-09-28T02:27:11.658Z,101595.03
2018-09-28T02:29:40.062Z,101587.17
2018-09-28T02:32:08.443Z,101584.12
2018-09-28T02:34:36.846Z,101588.48
2018-09-28T02:37:05.223Z,101593.73
2018-09-28T02:39:33.617Z,101589.35
2018-09-28T02:42:01.999Z,101605.46
2018-09-28T02:44:30.414Z,101599.34
2018-09-28T02:46:58.790Z,101600.63
2018-09-28T02:49:27.178Z,101598.86
2018-09-28T02:51:55.543Z,101604.93
2018-09-28T02:54:23.947Z,101601.86
2018-09-28T02:56:52.383Z,101611.00
2018-09-28T02:59:20.734Z,101605.73
2018-09-28T03:01:49.110Z,101612.67
2018-09-28T03:04:17.523Z,101613.96
2018-09-28T03:06:45.891Z,101606.95
2018-09-28T03:09:14.290Z,101609.11
2018-09-28T03:11:42.679Z,101610.38
2018-09-28T03:14:11.095Z,101613.42
2018-09-28T03:16:39.512Z,101617.69
2018-09-28T03:19:07.880Z,101625.02
2018-09-28T03:21:36.274Z,101624.93
2018-09-28T03:24:04.660Z,101628.35
2018-09-28T03:26:33.059Z,101633.02
2018-09-28T03:29:01.450Z,101633.80
2018-09-28T03:31:29.862Z,101644.17
2018-09-28T03:33:58.247Z,101644.50
2018-09-28T03:36:26.671Z,101644.79
2018-09-28T03:38:55.043Z,101650.77
2018-09-28T03:41:23.456Z,101651.55
2018-09-28T03:43:51.851Z,101656.20
2018-09-28T03:46:20.327Z,101656.08
2018-09-28T03:48:48.715Z,101659.89
2018-09-28T03:51:17.109Z,101658.45
2018-09-28T03:53:45.491Z,101659.64
2018-09-28T03:56:13.893Z,101669.54
2018-09-28T03:58:42.270Z,101669.86
2018-09-28T04:01:10.663Z,101671.95
2018-09-28T04:03:39.030Z,101669.70
2018-09-28T04:06:07.423Z,101669.19
2018-09-28T04:08:35.794Z,101674.33
2018-09-28T04:11:04.196Z,101683.42
2018-09-28T04:13:33.012Z,101689.89
2018-09-28T04:16:01.798Z,101694.64
2018-09-28T04:18:30.165Z,101689.38
2018-09-28T04:20:58.553Z,101696.33
2018-09-28T04:23:26.921Z,101711.51
2018-09-28T04:25:55.310Z,101714.11
2018-09-28T04:28:23.701Z,101707.13
2018-09-28T04:30:52.246Z,101709.72
2018-09-28T04:33:20.613Z,101714.94
2018-09-28T04:35:49.011Z,101717.11
2018-09-28T04:38:17.390Z,101717.11
2018-09-28T04:40:45.791Z,101722.33
2018-09-28T04:43:14.167Z,101724.50
2018-09-28T04:45:43.242Z,101733.16
2018-09-28T04:48:11.578Z,101743.15
2018-09-28T04:50:40.578Z,101747.97
2018-09-28T04:53:09.485Z,101741.02
2018-09-28T04:55:37.882Z,101747.97
2018-09-28T04:58:06.285Z,101752.70
2018-09-28T05:00:34.726Z,101758.79
2018-09-28T05:03:03.081Z,101768.36
2018-09-28T05:05:31.482Z,101764.84
2018-09-28T05:07:59.866Z,101771.36
2018-09-28T05:10:28.270Z,101776.13
2018-09-28T05:12:56.685Z,101778.70
2018-09-28T05:15:25.095Z,101785.20
2018-09-28T05:17:53.469Z,101793.37
2018-09-28T05:20:21.870Z,101798.58
2018-09-28T05:22:50.259Z,101794.53
2018-09-28T05:25:18.735Z,101810.17
2018-09-28T05:27:47.089Z,101814.95
2018-09-28T05:30:15.466Z,101817.08
2018-09-28T05:32:43.999Z,101814.95
2018-09-28T05:35:12.275Z,101811.47
2018-09-28T05:37:40.711Z,101815.78
2018-09-28T05:40:09.091Z,101819.25
2018-09-28T05:42:37.530Z,101820.06
2018-09-28T05:45:05.907Z,101823.94
2018-09-28T05:47:34.307Z,101831.70
2018-09-28T05:50:02.680Z,101832.95
2018-09-28T05:52:31.083Z,101830.77
2018-09-28T05:54:59.467Z,101830.20
2018-09-28T05:57:27.866Z,101841.44
2018-09-28T06:00:02.254Z,101846.16
2018-09-28T06:02:35.962Z,101841.32
2018-09-28T06:05:09.667Z,101852.91
2018-09-28T06:07:38.309Z,101854.59
2018-09-28T06:10:06.689Z,101856.61
2018-09-28T06:12:35.114Z,101853.87
2018-09-28T06:15:03.494Z,101857.23
2018-09-28T06:17:31.893Z,101854.57
2018-09-28T06:20:00.281Z,101860.98
2018-09-28T06:22:28.681Z,101864.89
2018-09-28T06:24:57.083Z,101861.41
2018-09-28T06:27:25.514Z,101863.16
2018-09-28T06:29:53.935Z,101873.67
2018-09-28T06:32:22.334Z,101877.64
2018-09-28T06:34:50.708Z,101876.39
2018-09-28T06:37:19.102Z,101879.05
2018-09-28T06:39:47.477Z,101885.58
2018-09-28T06:42:15.912Z,101877.86
2018-09-28T06:44:44.380Z,101881.41
2018-09-28T06:47:12.712Z,101886.30
2018-09-28T06:49:41.135Z,101888.56
2018-09-28T06:52:09.530Z,101899.95
2018-09-28T06:54:37.905Z,101903.91
2018-09-28T06:57:06.301Z,101905.27
2018-09-28T06:59:34.678Z,101908.43
2018-09-28T07:02:03.079Z,101906.74
2018-09-28T07:04:31.458Z,101905.88
2018-09-28T07:06:59.861Z,101915.00
2018-09-28T07:09:28.293Z,101922.00
2018-09-28T07:11:56.737Z,101928.14
2018-09-28T07:14:25.096Z,101928.25
2018-09-28T07:16:53.510Z,101919.19
2018-09-28T07:19:21.886Z,101926.67
2018-09-28T07:21:50.277Z,101933.58
2018-09-28T07:24:18.741Z,101943.62
2018-09-28T07:26:47.077Z,101947.59
2018-09-28T07:29:15.513Z,101945.03
2018-09-28T07:31:43.882Z,101946.88
2018-09-28T07:34:12.274Z,101950.45
2018-09-28T07:36:40.783Z,101960.95
2018-09-28T07:39:10.404Z,101954.92
2018-09-28T07:41:39.004Z,101971.91
2018-09-28T07:44:07.393Z,101964.16
2018-09-28T07:46:35.797Z,101966.00
2018-09-28T07:49:04.207Z,101982.66
2018-09-28T07:51:32.601Z,101978.86
2018-09-28T07:54:00.998Z,101978.05
2018-09-28T07:56:29.394Z,101984.67
2018-09-28T07:58:57.798Z,101989.11
2018-09-28T08:01:26.235Z,101991.73
2018-09-28T08:03:54.654Z,101996.13
2018-09-28T08:06:23.019Z,101994.01
2018-09-28T08:08:51.418Z,102008.84
2018-09-28T08:11:19.794Z,102006.34
2018-09-28T08:13:48.195Z,101995.94
2018-09-28T08:16:16.576Z,101994.30
2018-09-28T08:18:44.973Z,102003.92
2018-09-28T08:21:13.426Z,102019.24
2018-09-28T08:23:41.824Z,102011.90
2018-09-28T08:26:10.259Z,102010.20
2018-09-28T08:28:38.658Z,102015.61
2018-09-28T08:31:07.038Z,102021.79
2018-09-28T08:33:35.434Z,102017.06
2018-09-28T08:36:03.914Z,102022.72
2018-09-28T08:38:32.317Z,102028.37
2018-09-28T08:41:00.698Z,102032.28
2018-09-28T08:43:29.158Z,102027.94
2018-09-28T08:45:57.494Z,102035.42
2018-09-28T08:48:25.893Z,102037.21
2018-09-28T08:50:54.275Z,102044.22
2018-09-28T08:53:22.672Z,102025.60
2018-09-28T08:55:51.055Z,102035.75
2018-09-28T08:58:19.450Z,102039.84
2018-09-28T09:00:47.826Z,102044.90
2018-09-28T09:03:16.222Z,102042.09
2018-09-28T09:05:44.590Z,102047.09
2018-09-28T09:08:12.982Z,102045.83
2018-09-28T09:10:41.351Z,102041.91
2018-09-28T09:13:10.813Z,102047.17
2018-09-28T09:15:39.195Z,102043.66
2018-09-28T09:18:07.768Z,102044.05
2018-09-28T09:20:36.076Z,102049.67
2018-09-28T09:23:04.467Z,102064.09
2018-09-28T09:25:32.981Z,102062.86
2018-09-28T09:28:01.389Z,102051.62
2018-09-28T09:30:29.793Z,102050.02
2018-09-28T09:32:58.157Z,102037.97
2018-09-28T09:35:26.808Z,102051.63
2018-09-28T09:37:55.186Z,102055.59
2018-09-28T09:40:23.585Z,102054.78
2018-09-28T09:42:51.974Z,102061.40
2018-09-28T09:45:20.381Z,102054.09
2018-09-28T09:47:48.762Z,102050.16
2018-09-28T09:50:17.163Z,102057.11
2018-09-28T09:52:45.537Z,102058.81
2018-09-28T09:55:13.946Z,102068.41
2018-09-28T09:57:42.337Z,102064.45
2018-09-28T10:00:10.741Z,102067.94
2018-09-28T10:02:44.397Z,102072.81
2018-09-28T10:05:12.794Z,102072.91
2018-09-28T10:07:41.162Z,102062.48
2018-09-28T10:10:09.558Z,102061.98
2018-09-28T10:12:38.014Z,102076.70
2018-09-28T10:15:06.530Z,102064.27
2018-09-28T10:17:34.897Z,102060.60
2018-09-28T10:20:03.292Z,102075.78
2018-09-28T10:22:31.665Z,102070.95
2018-09-28T10:25:00.070Z,102068.77
2018-09-28T10:27:28.499Z,102070.91
2018-09-28T10:29:56.885Z,102081.41
2018-09-28T10:32:25.275Z,102084.94
2018-09-28T10:34:53.670Z,102078.08
2018-09-28T10:37:22.050Z,102068.67
2018-09-28T10:39:50.694Z,102065.80
2018-09-28T10:42:19.078Z,102060.20
2018-09-28T10:44:49.227Z,102060.40
2018-09-28T10:47:17.649Z,102068.45
2018-09-28T10:49:46.062Z,102065.95
2018-09-28T10:52:14.738Z,102065.14
2018-09-28T10:54:42.986Z,102057.72
2018-09-28T10:57:11.525Z,102053.85
2018-09-28T10:59:39.958Z,102073.44
2018-09-28T11:02:08.373Z,102065.58
2018-09-28T11:04:36.949Z,102065.95
2018-09-28T11:07:05.315Z,102072.97
2018-09-28T11:09:33.772Z,102065.61
2018-09-28T11:12:02.164Z,102069.63
2018-09-28T11:14:30.670Z,102081.44
2018-09-28T11:16:59.127Z,102075.73
2018-09-28T11:19:28.351Z,102076.52
2018-09-28T11:21:56.805Z,102077.30
2018-09-28T11:24:25.271Z,102077.20
2018-09-28T11:26:53.728Z,102083.75
2018-09-28T11:29:22.179Z,102078.92
2018-09-28T11:31:50.603Z,102076.30
2018-09-28T11:34:19.039Z,102087.14
2018-09-28T11:36:47.446Z,102088.95
2018-09-28T11:39:15.868Z,102085.59
2018-09-28T11:41:44.297Z,102082.60
2018-09-28T11:44:12.758Z,102090.11
2018-09-28T11:46:41.221Z,102093.23
2018-09-28T11:49:09.626Z,102098.50
2018-09-28T11:51:38.075Z,102108.52
2018-09-28T11:54:06.553Z,102102.37
2018-09-28T11:56:35.693Z,102100.22
2018-09-28T11:59:04.118Z,102092.47
2018-09-28T12:01:32.489Z,102090.87
2018-09-28T12:04:00.893Z,102094.53
2018-09-28T12:06:29.323Z,102091.96
2018-09-28T12:08:57.685Z,102095.53
2018-09-28T12:11:26.051Z,102097.26
2018-09-28T12:13:54.455Z,102093.73
2018-09-28T12:16:22.846Z,102096.38
2018-09-28T12:18:51.307Z,102095.94
2018-09-28T12:21:19.750Z,102092.91
2018-09-28T12:23:48.114Z,102101.23
2018-09-28T12:26:16.490Z,102103.04
2018-09-28T12:28:44.910Z,102112.67
2018-09-28T12:31:13.292Z,102111.36
2018-09-28T12:33:41.716Z,102109.20
2018-09-28T12:36:10.090Z,102107.91
2018-09-28T12:38:38.489Z,102101.36
2018-09-28T12:41:07.066Z,102113.62
2018-09-28T12:43:35.483Z,102112.31
2018-09-28T12:46:03.877Z,102110.10
2018-09-28T12:48:32.273Z,102103.94
2018-09-28T12:51:00.682Z,102106.94
2018-09-28T12:53:29.104Z,102110.39
2018-09-28T12:55:57.491Z,102109.89
2018-09-28T12:58:25.870Z,102115.61
2018-09-28T13:00:54.407Z,102110.77
2018-09-28T13:03:22.697Z,102107.22
2018-09-28T13:05:51.149Z,102115.94
2018-09-28T13:08:19.581Z,102119.84
2018-09-28T13:10:48.412Z,102114.98
2018-09-28T13:13:17.466Z,102118.39
2018-09-28T13:15:45.901Z,102120.08
2018-09-28T13:18:14.309Z,102109.97
2018-09-28T13:20:42.782Z,102111.75
2018-09-28T13:23:11.113Z,102122.66
2018-09-28T13:25:39.506Z,102129.19
2018-09-28T13:28:07.903Z,102119.95
2018-09-28T13:30:36.304Z,102120.83
2018-09-28T13:33:04.762Z,102122.58
2018-09-28T13:35:33.283Z,102132.21
2018-09-28T13:38:01.658Z,102134.83
2018-09-28T13:40:30.081Z,102148.34
2018-09-28T13:42:58.456Z,102145.19
2018-09-28T13:45:26.893Z,102147.70
2018-09-28T13:47:55.297Z,102146.73
2018-09-28T13:50:23.833Z,102148.88
2018-09-28T13:52:52.204Z,102148.85
2018-09-28T13:55:20.607Z,102155.83
2018-09-28T13:57:48.987Z,102164.09
2018-09-28T14:00:17.423Z,102162.75
2018-09-28T14:02:45.864Z,102164.05
2018-09-28T14:05:14.221Z,102173.59
2018-09-28T14:07:42.593Z,102165.66
2018-09-28T14:10:11.042Z,102171.33
2018-09-28T14:12:39.482Z,102168.67
2018-09-28T14:15:07.830Z,102169.48
2018-09-28T14:17:36.234Z,102176.42
2018-09-28T14:20:05.022Z,102172.49
2018-09-28T14:22:33.542Z,102168.53
2018-09-28T14:25:01.962Z,102172.49
2018-09-28T14:27:30.339Z,102176.02
2018-09-28T14:29:58.741Z,102189.59
2018-09-28T14:32:27.175Z,102169.19
2018-09-28T14:34:55.757Z,102171.44
2018-09-28T14:37:24.125Z,102167.14
2018-09-28T14:39:52.536Z,102170.30
2018-09-28T14:42:21.152Z,102169.97
2018-09-28T14:44:49.730Z,102174.84
2018-09-28T14:47:18.041Z,102179.27
2018-09-28T14:49:46.438Z,102172.69
2018-09-28T14:52:14.981Z,102176.59
2018-09-28T14:54:43.402Z,102171.78
2018-09-28T14:57:12.252Z,102173.06
2018-09-28T14:59:40.631Z,102173.80
2018-09-28T15:02:09.118Z,102184.97
2018-09-28T15:04:37.551Z,102198.70
2018-09-28T15:07:05.915Z,102192.41
2018-09-28T15:09:34.591Z,102203.63
2018-09-28T15:12:03.000Z,102199.93
2018-09-28T15:14:31.411Z,102203.21
2018-09-28T15:16:59.821Z,102195.67
2018-09-28T15:19:28.189Z,102208.58
2018-09-28T15:21:56.591Z,102205.78
2018-09-28T15:24:24.967Z,102204.80
2018-09-28T15:26:53.369Z,102209.07
2018-09-28T15:29:21.777Z,102213.77
2018-09-28T15:31:50.215Z,102214.98
2018-09-28T15:34:18.647Z,102210.96
2018-09-28T15:36:47.132Z,102210.47
2018-09-28T15:39:15.514Z,102204.33
2018-09-28T15:41:43.945Z,102204.28
2018-09-28T15:44:12.318Z,102211.69
2018-09-28T15:46:40.721Z,102212.06
2018-09-28T15:49:09.113Z,102216.33
2018-09-28T15:51:37.529Z,102211.06
2018-09-28T15:54:05.901Z,102215.31
2018-09-28T15:56:34.320Z,102216.55
2018-09-28T15:59:02.711Z,102220.37
2018-09-28T16:01:31.132Z,102219.02
2018-09-28T16:03:59.515Z,102219.77
2018-09-28T16:06:27.937Z,102231.47
2018-09-28T16:08:56.320Z,102246.16
2018-09-28T16:11:24.726Z,102252.11
2018-09-28T16:13:53.178Z,102256.39
2018-09-28T16:16:21.578Z,102259.73
2018-09-28T16:18:50.069Z,102260.00
2018-09-28T16:21:18.533Z,102259.87
2018-09-28T16:23:46.939Z,102258.83
2018-09-28T16:26:15.334Z,102268.23
2018-09-28T16:28:43.718Z,102264.61
2018-09-28T16:31:12.126Z,102259.60
2018-09-28T16:33:40.511Z,102256.42
2018-09-28T16:36:08.958Z,102258.02
2018-09-28T16:38:37.330Z,102260.41
2018-09-28T16:41:05.905Z,102249.38
2018-09-28T16:43:34.286Z,102251.38
2018-09-28T16:46:02.681Z,102255.11
2018-09-28T16:48:31.095Z,102259.75
2018-09-28T16:50:59.541Z,102268.72
2018-09-28T16:53:27.929Z,102275.48
2018-09-28T16:55:56.339Z,102270.94
2018-09-28T16:58:24.718Z,102274.27
2018-09-28T17:00:53.198Z,102280.20
2018-09-28T17:03:21.640Z,102280.49
2018-09-28T17:05:50.041Z,102287.66
2018-09-28T17:08:18.409Z,102287.95
2018-09-28T17:10:46.977Z,102282.49
2018-09-28T17:13:15.347Z,102293.20
2018-09-28T17:15:43.751Z,102293.48
2018-09-28T17:18:12.168Z,102293.73
2018-09-28T17:20:40.543Z,102302.67
2018-09-28T17:23:08.991Z,102310.71
2018-09-28T17:25:38.063Z,102322.31
2018-09-28T17:28:06.757Z,102320.38
2018-09-28T17:30:35.292Z,102323.68
2018-09-28T17:33:03.686Z,102321.29
2018-09-28T17:35:32.070Z,102322.83
2018-09-28T17:38:00.479Z,102321.31
2018-09-28T17:40:28.898Z,102327.21
2018-09-28T17:42:57.348Z,102322.55
2018-09-28T17:45:25.726Z,102325.34
2018-09-28T17:47:54.128Z,102318.59
2018-09-28T17:50:22.505Z,102331.41
2018-09-28T17:52:51.022Z,102334.69
2018-09-28T17:55:19.419Z,102335.83
2018-09-28T17:57:48.002Z,102331.66
2018-09-28T18:00:16.403Z,102337.37
2018-09-28T18:02:44.822Z,102338.40
2018-09-28T18:05:13.205Z,102341.61
2018-09-28T18:07:41.619Z,102347.05
2018-09-28T18:10:10.273Z,102349.02
2018-09-28T18:12:38.874Z,102354.47
2018-09-28T18:15:07.362Z,102364.69
2018-09-28T18:17:35.871Z,102371.01
2018-09-28T18:20:04.577Z,102383.44
2018-09-28T18:22:33.005Z,102374.16
2018-09-28T18:25:01.489Z,102375.81
2018-09-28T18:27:29.930Z,102371.73
2018-09-28T18:29:58.492Z,102381.94
2018-09-28T18:32:26.883Z,102395.70
2018-09-28T18:34:55.375Z,102392.04
2018-09-28T18:37:23.779Z,102398.42
2018-09-28T18:39:52.267Z,102396.52
2018-09-28T18:42:20.725Z,102386.51
2018-09-28T18:44:49.228Z,102390.79
2018-09-28T18:47:17.846Z,102386.86
2018-09-28T18:49:46.402Z,102385.06
2018-09-28T18:52:14.835Z,102381.16
2018-09-28T18:54:43.236Z,102376.89
2018-09-28T18:57:11.611Z,102376.92
2018-09-28T18:59:40.027Z,102368.33
2018-09-28T19:02:08.426Z,102360.23
2018-09-28T19:04:36.824Z,102357.74
2018-09-28T19:07:05.465Z,102365.19
2018-09-28T19:09:33.866Z,102375.23
2018-09-28T19:12:02.410Z,102379.58
2018-09-28T19:14:30.782Z,102378.28
2018-09-28T19:16:59.330Z,102381.30
2018-09-28T19:19:27.715Z,102387.38
2018-09-28T19:21:56.273Z,102390.39
2018-09-28T19:24:24.651Z,102385.62
2018-09-28T19:26:53.046Z,102388.67
2018-09-28T19:29:21.453Z,102388.67
2018-09-28T19:31:49.957Z,102390.85
2018-09-28T19:34:18.460Z,102398.26
2018-09-28T19:36:46.863Z,102409.56
2018-09-28T19:39:15.243Z,102408.34
2018-09-28T19:41:43.887Z,102411.55
2018-09-28T19:44:12.274Z,102416.08
2018-09-28T19:46:40.665Z,102408.92
2018-09-28T19:49:09.159Z,102406.16
2018-09-28T19:51:37.606Z,102419.02
2018-09-28T19:54:06.002Z,102427.00
2018-09-28T19:56:34.401Z,102425.45
2018-09-28T19:59:02.790Z,102416.95
2018-09-28T20:01:31.201Z,102420.12
2018-09-28T20:04:00.259Z,102413.69
2018-09-28T20:06:28.990Z,102409.89
2018-09-28T20:08:57.367Z,102420.40
2018-09-28T20:11:25.778Z,102426.52
2018-09-28T20:13:54.162Z,102430.41
2018-09-28T20:16:22.563Z,102434.66
2018-09-28T20:18:50.966Z,102445.88
2018-09-28T20:21:19.565Z,102443.59
2018-09-28T20:23:47.928Z,102450.44
2018-09-28T20:26:16.397Z,102453.34
2018-09-28T20:28:44.799Z,102457.11
2018-09-28T20:31:13.194Z,102467.39
2018-09-28T20:33:41.567Z,102469.88
2018-09-28T20:36:09.958Z,102465.91
2018-09-28T20:38:38.427Z,102457.59
2018-09-28T20:41:06.754Z,102464.50
2018-09-28T20:43:35.124Z,102464.92
2018-09-28T20:46:03.525Z,102468.29
2018-09-28T20:48:31.912Z,102469.94
2018-09-28T20:51:00.311Z,102477.20
2018-09-28T20:53:28.869Z,102478.31
2018-09-28T20:55:57.270Z,102484.70
2018-09-28T20:58:25.658Z,102481.91
2018-09-28T21:00:54.045Z,102485.23
2018-09-28T21:03:22.451Z,102486.34
2018-09-28T21:05:50.822Z,102483.91
2018-09-28T21:08:19.230Z,102485.77
2018-09-28T21:10:47.601Z,102491.53
2018-09-28T21:13:15.994Z,102490.42
2018-09-28T21:15:44.362Z,102495.30
2018-09-28T21:18:12.782Z,102498.91
2018-09-28T21:20:41.207Z,102498.67
2018-09-28T21:23:09.595Z,102500.95
2018-09-28T21:25:37.973Z,102505.39
2018-09-28T21:28:06.385Z,102505.52
2018-09-28T21:30:34.757Z,102510.39
2018-09-28T21:33:03.150Z,102510.59
2018-09-28T21:35:31.627Z,102523.44
2018-09-28T21:37:59.974Z,102527.04
2018-09-28T21:40:28.344Z,102532.05
2018-09-28T21:42:56.747Z,102535.28
2018-09-28T21:45:25.114Z,102528.13
2018-09-28T21:47:53.517Z,102536.56
2018-09-28T21:50:21.928Z,102526.31
2018-09-28T21:52:50.317Z,102529.94
2018-09-28T21:55:18.687Z,102530.60
2018-09-28T21:57:47.066Z,102528.63
2018-09-28T22:00:15.435Z,102529.70
2018-09-28T22:02:43.911Z,102530.78
2018-09-28T22:05:12.278Z,102535.03
2018-09-28T22:07:40.685Z,102535.69
2018-09-28T22:10:09.061Z,102540.23
2018-09-28T22:12:37.421Z,102540.09
2018-09-28T22:15:05.813Z,102541.26
2018-09-28T22:17:34.190Z,102545.00
2018-09-28T22:20:03.069Z,102554.73
2018-09-28T22:22:31.529Z,102544.64
2018-09-28T22:24:59.923Z,102550.56
2018-09-28T22:27:28.395Z,102555.57
2018-09-28T22:29:56.784Z,102557.61
2018-09-28T22:32:25.180Z,102556.08
2018-09-28T22:34:53.557Z,102552.47
2018-09-28T22:37:21.923Z,102556.13
2018-09-28T22:39:50.310Z,102554.59
2018-09-28T22:42:18.683Z,102553.16
2018-09-28T22:44:47.074Z,102545.58
2018-09-28T22:47:15.451Z,102551.08
2018-09-28T22:49:43.850Z,102553.99
2018-09-28T22:52:12.241Z,102557.41
2018-09-28T22:54:40.631Z,102570.20
2018-09-28T22:57:08.993Z,102567.38
2018-09-28T22:59:37.386Z,102567.65
2018-09-28T23:02:05.752Z,102573.56
2018-09-28T23:04:34.137Z,102565.56
2018-09-28T23:07:02.509Z,102560.20
2018-09-28T23:09:30.906Z,102555.61
2018-09-28T23:11:59.345Z,102562.25
2018-09-28T23:14:27.713Z,102567.19
2018-09-28T23:16:56.086Z,102570.03
2018-09-28T23:19:24.482Z,102574.97
2018-09-28T23:21:52.941Z,102575.22
2018-09-28T23:24:26.860Z,102575.86
2018-09-28T23:26:55.229Z,102573.91
2018-09-28T23:29:23.641Z,102577.64
2018-09-28T23:31:52.006Z,102573.20
2018-09-28T23:34:20.393Z,102573.52
2018-09-28T23:36:48.757Z,102582.83
2018-09-28T23:39:17.149Z,102584.75
2018-09-28T23:41:45.518Z,102588.56
2018-09-28T23:44:13.909Z,102588.38
2018-09-28T23:46:42.265Z,102589.01
2018-09-28T23:49:10.654Z,102591.91
2018-09-28T23:51:39.022Z,102591.25
2018-09-28T23:54:07.413Z,102596.77
2018-09-28T23:56:35.807Z,102593.98
2018-09-28T23:59:04.261Z,102593.92
